Vanquish — PHOW — position and weather

sailwx.info

Track history (hours):
 
Tides and Currents Weather Stations Pressure Air Temp Water Temp Dewpoint Dewpoint Depression Visibility Wind Speed Wind Dir Waves Ship Positions

Vanquish

Last reported at 2018-Jun-20 19:00 UTC. Time now 2018-Jun-20 19:14 UTC.
Position N 26°05' W 080°07'.

Length 100 m; draft 3.8 m.

Type: Cargo ship. MMSI: 244561000.

Date/timePositionNaut miles runAvg speedWind from/ knotsBaromVisibWave heightAir tempDewpointWater temp
2018-Jun-20 19:00N 26°05' W 080°07'4 8.7
2018-Jun-20 18:30N 26°04' W 080°03'714.7
2018-Jun-20 18:00N 25°56' W 080°02'714.8
2018-Jun-20 17:31N 25°49' W 080°04'510.2
2018-Jun-20 17:00N 25°46' W 080°08'2 3.3
2018-Jun-20 16:30N 25°46' W 080°10'0 0.0
2018-Jun-20 16:00N 25°46' W 080°10'0 0.0
2018-Jun-20 15:30N 25°46' W 080°10'0 0.0
2018-Jun-20 15:00N 25°46' W 080°10'0 0.0
2018-Jun-20 14:30N 25°46' W 080°10'0 0.0
2018-Jun-20 14:00N 25°46' W 080°10'0 0.0
2018-Jun-20 13:30N 25°46' W 080°10'0 0.0
2018-Jun-20 13:00N 25°46' W 080°10'1 1.8
2018-Jun-20 12:30N 25°46' W 080°09'5 9.4
2018-Jun-20 12:00N 25°46' W 080°04'510.0
2018-Jun-20 11:30N 25°41' W 080°03'612.5
2018-Jun-20 11:00N 25°34' W 080°02'612.6
2018-Jun-20 10:30N 25°28' W 080°03'  
2018-Jun-15 00:05N 25°16' W 080°05'110.5
2018-Jun-15 00:00N 25°17' W 080°05'610.5
2018-Jun-14 23:25N 25°23' W 080°02'410.7
2018-Jun-14 23:01N 25°27' W 080°01'510.7
2018-Jun-14 22:31N 25°32' W 080°00'510.7
2018-Jun-14 22:00N 25°38' W 079°60'510.8
2018-Jun-14 21:30N 25°43' W 079°59'510.5
2018-Jun-14 21:00N 25°48' W 079°58'510.8
2018-Jun-14 20:30N 25°54' W 079°58'510.9
2018-Jun-14 20:00N 25°59' W 079°59'611.8
2018-Jun-14 19:30N 26°04' W 080°02'4 9.0
2018-Jun-14 19:00N 26°05' W 080°07'0 0.1
2018-Jun-14 18:30N 26°05' W 080°07'0 0.0
2018-Jun-14 17:44N 26°05' W 080°07'0 0.0
2018-Jun-14 17:29N 26°05' W 080°07'0 0.0
2018-Jun-14 16:59N 26°05' W 080°07'0 0.0
2018-Jun-14 16:29N 26°05' W 080°07'0 0.0
2018-Jun-14 15:59N 26°05' W 080°07'0 0.0
2018-Jun-14 15:29N 26°05' W 080°07'0 0.0
2018-Jun-14 14:59N 26°05' W 080°07'0 0.0
2018-Jun-14 14:29N 26°05' W 080°07'0 0.0
2018-Jun-14 13:47N 26°05' W 080°07'0 0.0
2018-Jun-14 13:29N 26°05' W 080°07'0 0.0
2018-Jun-14 12:59N 26°05' W 080°07'0 0.0
2018-Jun-14 12:29N 26°05' W 080°07'0 0.0
2018-Jun-14 11:50N 26°05' W 080°07'0 0.0
2018-Jun-14 11:20N 26°05' W 080°07'0 0.0
2018-Jun-14 10:50N 26°05' W 080°07'0 0.0
2018-Jun-14 10:20N 26°05' W 080°07'0 0.0
2018-Jun-14 09:53N 26°05' W 080°07'0 0.0
2018-Jun-14 09:23N 26°05' W 080°07'0 0.0
2018-Jun-14 08:53N 26°05' W 080°07'0 0.0
2018-Jun-14 08:23N 26°05' W 080°07'0 0.0
2018-Jun-14 07:53N 26°05' W 080°07'0 0.0
2018-Jun-14 07:26N 26°05' W 080°07'0 0.0
2018-Jun-14 06:53N 26°05' W 080°07'0 0.0
2018-Jun-14 06:26N 26°05' W 080°07'0 0.0
2018-Jun-14 05:56N 26°05' W 080°07'0 0.0
2018-Jun-14 05:26N 26°05' W 080°07'0 0.0
2018-Jun-14 04:56N 26°05' W 080°07'0 0.0
2018-Jun-14 04:26N 26°05' W 080°07'0 0.0
2018-Jun-14 03:56N 26°05' W 080°07'0 0.0
2018-Jun-14 03:26N 26°05' W 080°07'0 0.0
2018-Jun-14 02:59N 26°05' W 080°07'0 0.0
2018-Jun-14 02:29N 26°05' W 080°07'0 0.0
2018-Jun-14 01:59N 26°05' W 080°07'0 0.6
2018-Jun-14 01:30N 26°06' W 080°07'3 5.3
2018-Jun-14 00:56N 26°08' W 080°04'0 0.1
2018-Jun-14 00:26N 26°08' W 080°04'0 0.0
2018-Jun-13 23:59N 26°08' W 080°04'0 0.0
2018-Jun-13 23:29N 26°08' W 080°04'0 0.0
2018-Jun-13 22:59N 26°08' W 080°04'0 0.0
2018-Jun-13 22:29N 26°08' W 080°04'0 0.0
2018-Jun-13 21:59N 26°08' W 080°04'0 0.0
2018-Jun-13 21:29N 26°08' W 080°04'0 0.0
2018-Jun-13 20:59N 26°08' W 080°04'0 0.0
2018-Jun-13 20:29N 26°08' W 080°04'0 0.0
2018-Jun-13 19:59N 26°08' W 080°04'0 0.0
2018-Jun-13 19:29N 26°08' W 080°04'0 0.0
2018-Jun-13 18:59N 26°08' W 080°04'0 0.0
2018-Jun-13 18:17N 26°08' W 080°04'0 0.0
2018-Jun-13 17:59N 26°08' W 080°04'0 0.0
2018-Jun-13 17:29N 26°08' W 080°04'0 0.0
2018-Jun-13 16:59N 26°08' W 080°04'0 0.0
2018-Jun-13 16:29N 26°08' W 080°04'0 0.3
2018-Jun-13 16:01N 26°08' W 080°05'3 6.2
2018-Jun-13 15:31N 26°05' W 080°07'0 0.1
2018-Jun-13 15:01N 26°05' W 080°07'0 0.0
2018-Jun-13 14:29N 26°05' W 080°07'0 0.0
2018-Jun-13 13:44N 26°05' W 080°07'0 0.0
2018-Jun-13 13:29N 26°05' W 080°07'0 0.0
2018-Jun-13 12:59N 26°05' W 080°07'0 0.0
2018-Jun-13 12:29N 26°05' W 080°07'0 0.0
2018-Jun-13 11:59N 26°05' W 080°07'0 0.0
2018-Jun-13 11:29N 26°05' W 080°07'0 0.0
2018-Jun-13 10:59N 26°05' W 080°07'0 0.0
2018-Jun-13 10:29N 26°05' W 080°07'0 0.0
2018-Jun-13 09:59N 26°05' W 080°07'0 0.0
2018-Jun-13 09:29N 26°05' W 080°07'0 0.0
2018-Jun-13 08:59N 26°05' W 080°07'0 0.0
2018-Jun-13 08:20N 26°05' W 080°07'0 0.0
2018-Jun-13 07:50N 26°05' W 080°07'0 0.0
2018-Jun-13 07:20N 26°05' W 080°07'0 0.0
2018-Jun-13 06:53N 26°05' W 080°07'0 0.0
2018-Jun-13 06:23N 26°05' W 080°07'0 0.0
2018-Jun-13 05:53N 26°05' W 080°07'0 0.0
2018-Jun-13 05:23N 26°05' W 080°07'0 0.0
2018-Jun-13 04:53N 26°05' W 080°07'0 0.0
2018-Jun-13 04:26N 26°05' W 080°07'0 0.0
2018-Jun-13 03:56N 26°05' W 080°07'0 0.0
2018-Jun-13 03:26N 26°05' W 080°07'0 0.0
2018-Jun-13 02:56N 26°05' W 080°07'0 0.0
2018-Jun-13 02:26N 26°05' W 080°07'0 0.0
2018-Jun-13 01:56N 26°05' W 080°07'0 0.0
2018-Jun-13 01:26N 26°05' W 080°07'0 0.0
2018-Jun-13 00:56N 26°05' W 080°07'0 0.0
2018-Jun-13 00:29N 26°05' W 080°07'0 0.0
2018-Jun-12 23:59N 26°05' W 080°07'2 4.7
2018-Jun-12 23:31N 26°06' W 080°05'3 6.6
2018-Jun-12 23:00N 26°03' W 080°02'4 8.6
2018-Jun-12 22:30N 25°59' W 080°02'4 7.8
2018-Jun-12 22:00N 25°55' W 080°02'4 8.1
2018-Jun-12 21:31N 25°51' W 080°02'612.9
2018-Jun-12 21:00N 25°46' W 080°06'4 7.4
2018-Jun-12 20:30N 25°46' W 080°10'0 0.0
2018-Jun-12 20:00N 25°46' W 080°10'0 0.0
2018-Jun-12 19:25N 25°46' W 080°10'0 0.0
2018-Jun-12 18:58N 25°46' W 080°10'0 0.0
2018-Jun-12 18:28N 25°46' W 080°10'0 0.0
2018-Jun-12 17:58N 25°46' W 080°10'0 0.0
2018-Jun-12 17:28N 25°46' W 080°10'0 0.0
2018-Jun-12 16:58N 25°46' W 080°10'0 0.0
2018-Jun-12 16:28N 25°46' W 080°10'0 0.0
2018-Jun-12 15:58N 25°46' W 080°10'0 0.0
2018-Jun-12 15:28N 25°46' W 080°10'0 0.0
2018-Jun-12 14:58N 25°46' W 080°10'0 0.0
2018-Jun-12 14:28N 25°46' W 080°10'1 1.7
2018-Jun-12 14:00N 25°46' W 080°09'5 9.7
2018-Jun-12 13:30N 25°45' W 080°04'612.3
2018-Jun-12 13:00N 25°39' W 080°02'5 9.1
2018-Jun-12 12:30N 25°34' W 080°02'714.0
2018-Jun-12 12:00N 25°27' W 080°02'714.3
2018-Jun-12 11:29N 25°20' W 080°03'  
Track history (hours):
 
Tides and Currents Weather Stations Pressure Air Temp Water Temp Dewpoint Dewpoint Depression Visibility Wind Speed Wind Dir Waves Ship Positions

Vanquish

Last reported at 2018-Jun-20 19:00 UTC. Time now 2018-Jun-20 19:14 UTC.
Position N 26°05' W 080°07'.

Length 100 m; draft 3.8 m.

Type: Cargo ship. MMSI: 244561000.

Date/timePositionNaut miles runAvg speedWind from/ knotsBaromVisibWave heightAir tempDewpointWater temp
2018-Jun-20 19:00N 26°05' W 080°07'4 8.7
2018-Jun-20 18:30N 26°04' W 080°03'714.7
2018-Jun-20 18:00N 25°56' W 080°02'714.8
2018-Jun-20 17:31N 25°49' W 080°04'510.2
2018-Jun-20 17:00N 25°46' W 080°08'2 3.3
2018-Jun-20 16:30N 25°46' W 080°10'0 0.0
2018-Jun-20 16:00N 25°46' W 080°10'0 0.0
2018-Jun-20 15:30N 25°46' W 080°10'0 0.0
2018-Jun-20 15:00N 25°46' W 080°10'0 0.0
2018-Jun-20 14:30N 25°46' W 080°10'0 0.0
2018-Jun-20 14:00N 25°46' W 080°10'0 0.0
2018-Jun-20 13:30N 25°46' W 080°10'0 0.0
2018-Jun-20 13:00N 25°46' W 080°10'1 1.8
2018-Jun-20 12:30N 25°46' W 080°09'5 9.4
2018-Jun-20 12:00N 25°46' W 080°04'510.0
2018-Jun-20 11:30N 25°41' W 080°03'612.5
2018-Jun-20 11:00N 25°34' W 080°02'612.6
2018-Jun-20 10:30N 25°28' W 080°03'  
2018-Jun-15 00:05N 25°16' W 080°05'110.5
2018-Jun-15 00:00N 25°17' W 080°05'610.5
2018-Jun-14 23:25N 25°23' W 080°02'410.7
2018-Jun-14 23:01N 25°27' W 080°01'510.7
2018-Jun-14 22:31N 25°32' W 080°00'510.7
2018-Jun-14 22:00N 25°38' W 079°60'510.8
2018-Jun-14 21:30N 25°43' W 079°59'510.5
2018-Jun-14 21:00N 25°48' W 079°58'510.8
2018-Jun-14 20:30N 25°54' W 079°58'510.9
2018-Jun-14 20:00N 25°59' W 079°59'611.8
2018-Jun-14 19:30N 26°04' W 080°02'4 9.0
2018-Jun-14 19:00N 26°05' W 080°07'0 0.1
2018-Jun-14 18:30N 26°05' W 080°07'0 0.0
2018-Jun-14 17:44N 26°05' W 080°07'0 0.0
2018-Jun-14 17:29N 26°05' W 080°07'0 0.0
2018-Jun-14 16:59N 26°05' W 080°07'0 0.0
2018-Jun-14 16:29N 26°05' W 080°07'0 0.0
2018-Jun-14 15:59N 26°05' W 080°07'0 0.0
2018-Jun-14 15:29N 26°05' W 080°07'0 0.0
2018-Jun-14 14:59N 26°05' W 080°07'0 0.0
2018-Jun-14 14:29N 26°05' W 080°07'0 0.0
2018-Jun-14 13:47N 26°05' W 080°07'0 0.0
2018-Jun-14 13:29N 26°05' W 080°07'0 0.0
2018-Jun-14 12:59N 26°05' W 080°07'0 0.0
2018-Jun-14 12:29N 26°05' W 080°07'0 0.0
2018-Jun-14 11:50N 26°05' W 080°07'0 0.0
2018-Jun-14 11:20N 26°05' W 080°07'0 0.0
2018-Jun-14 10:50N 26°05' W 080°07'0 0.0
2018-Jun-14 10:20N 26°05' W 080°07'0 0.0
2018-Jun-14 09:53N 26°05' W 080°07'0 0.0
2018-Jun-14 09:23N 26°05' W 080°07'0 0.0
2018-Jun-14 08:53N 26°05' W 080°07'0 0.0
2018-Jun-14 08:23N 26°05' W 080°07'0 0.0
2018-Jun-14 07:53N 26°05' W 080°07'0 0.0
2018-Jun-14 07:26N 26°05' W 080°07'0 0.0
2018-Jun-14 06:53N 26°05' W 080°07'0 0.0
2018-Jun-14 06:26N 26°05' W 080°07'0 0.0
2018-Jun-14 05:56N 26°05' W 080°07'0 0.0
2018-Jun-14 05:26N 26°05' W 080°07'0 0.0
2018-Jun-14 04:56N 26°05' W 080°07'0 0.0
2018-Jun-14 04:26N 26°05' W 080°07'0 0.0
2018-Jun-14 03:56N 26°05' W 080°07'0 0.0
2018-Jun-14 03:26N 26°05' W 080°07'0 0.0
2018-Jun-14 02:59N 26°05' W 080°07'0 0.0
2018-Jun-14 02:29N 26°05' W 080°07'0 0.0
2018-Jun-14 01:59N 26°05' W 080°07'0 0.6
2018-Jun-14 01:30N 26°06' W 080°07'3 5.3
2018-Jun-14 00:56N 26°08' W 080°04'0 0.1
2018-Jun-14 00:26N 26°08' W 080°04'0 0.0
2018-Jun-13 23:59N 26°08' W 080°04'0 0.0
2018-Jun-13 23:29N 26°08' W 080°04'0 0.0
2018-Jun-13 22:59N 26°08' W 080°04'0 0.0
2018-Jun-13 22:29N 26°08' W 080°04'0 0.0
2018-Jun-13 21:59N 26°08' W 080°04'0 0.0
2018-Jun-13 21:29N 26°08' W 080°04'0 0.0
2018-Jun-13 20:59N 26°08' W 080°04'0 0.0
2018-Jun-13 20:29N 26°08' W 080°04'0 0.0
2018-Jun-13 19:59N 26°08' W 080°04'0 0.0
2018-Jun-13 19:29N 26°08' W 080°04'0 0.0
2018-Jun-13 18:59N 26°08' W 080°04'0 0.0
2018-Jun-13 18:17N 26°08' W 080°04'0 0.0
2018-Jun-13 17:59N 26°08' W 080°04'0 0.0
2018-Jun-13 17:29N 26°08' W 080°04'0 0.0
2018-Jun-13 16:59N 26°08' W 080°04'0 0.0
2018-Jun-13 16:29N 26°08' W 080°04'0 0.3
2018-Jun-13 16:01N 26°08' W 080°05'3 6.2
2018-Jun-13 15:31N 26°05' W 080°07'0 0.1
2018-Jun-13 15:01N 26°05' W 080°07'0 0.0
2018-Jun-13 14:29N 26°05' W 080°07'0 0.0
2018-Jun-13 13:44N 26°05' W 080°07'0 0.0
2018-Jun-13 13:29N 26°05' W 080°07'0 0.0
2018-Jun-13 12:59N 26°05' W 080°07'0 0.0
2018-Jun-13 12:29N 26°05' W 080°07'0 0.0
2018-Jun-13 11:59N 26°05' W 080°07'0 0.0
2018-Jun-13 11:29N 26°05' W 080°07'0 0.0
2018-Jun-13 10:59N 26°05' W 080°07'0 0.0
2018-Jun-13 10:29N 26°05' W 080°07'0 0.0
2018-Jun-13 09:59N 26°05' W 080°07'0 0.0
2018-Jun-13 09:29N 26°05' W 080°07'0 0.0
2018-Jun-13 08:59N 26°05' W 080°07'0 0.0
2018-Jun-13 08:20N 26°05' W 080°07'0 0.0
2018-Jun-13 07:50N 26°05' W 080°07'0 0.0
2018-Jun-13 07:20N 26°05' W 080°07'0 0.0
2018-Jun-13 06:53N 26°05' W 080°07'0 0.0
2018-Jun-13 06:23N 26°05' W 080°07'0 0.0
2018-Jun-13 05:53N 26°05' W 080°07'0 0.0
2018-Jun-13 05:23N 26°05' W 080°07'0 0.0
2018-Jun-13 04:53N 26°05' W 080°07'0 0.0
2018-Jun-13 04:26N 26°05' W 080°07'0 0.0
2018-Jun-13 03:56N 26°05' W 080°07'0 0.0
2018-Jun-13 03:26N 26°05' W 080°07'0 0.0
2018-Jun-13 02:56N 26°05' W 080°07'0 0.0
2018-Jun-13 02:26N 26°05' W 080°07'0 0.0
2018-Jun-13 01:56N 26°05' W 080°07'0 0.0
2018-Jun-13 01:26N 26°05' W 080°07'0 0.0
2018-Jun-13 00:56N 26°05' W 080°07'0 0.0
2018-Jun-13 00:29N 26°05' W 080°07'0 0.0
2018-Jun-12 23:59N 26°05' W 080°07'2 4.7
2018-Jun-12 23:31N 26°06' W 080°05'3 6.6
2018-Jun-12 23:00N 26°03' W 080°02'4 8.6
2018-Jun-12 22:30N 25°59' W 080°02'4 7.8
2018-Jun-12 22:00N 25°55' W 080°02'4 8.1
2018-Jun-12 21:31N 25°51' W 080°02'612.9
2018-Jun-12 21:00N 25°46' W 080°06'4 7.4
2018-Jun-12 20:30N 25°46' W 080°10'0 0.0
2018-Jun-12 20:00N 25°46' W 080°10'0 0.0
2018-Jun-12 19:25N 25°46' W 080°10'0 0.0
2018-Jun-12 18:58N 25°46' W 080°10'0 0.0
2018-Jun-12 18:28N 25°46' W 080°10'0 0.0
2018-Jun-12 17:58N 25°46' W 080°10'0 0.0
2018-Jun-12 17:28N 25°46' W 080°10'0 0.0
2018-Jun-12 16:58N 25°46' W 080°10'0 0.0
2018-Jun-12 16:28N 25°46' W 080°10'0 0.0
2018-Jun-12 15:58N 25°46' W 080°10'0 0.0
2018-Jun-12 15:28N 25°46' W 080°10'0 0.0
2018-Jun-12 14:58N 25°46' W 080°10'0 0.0
2018-Jun-12 14:28N 25°46' W 080°10'1 1.7
2018-Jun-12 14:00N 25°46' W 080°09'5 9.7
2018-Jun-12 13:30N 25°45' W 080°04'612.3
2018-Jun-12 13:00N 25°39' W 080°02'5 9.1
2018-Jun-12 12:30N 25°34' W 080°02'714.0
2018-Jun-12 12:00N 25°27' W 080°02'714.3
2018-Jun-12 11:29N 25°20' W 080°03'  

Dump ship's entire track history